Boonsboro, MD

5:35 AM EST on March 05, 2015 (GMT -0500)
Boonsboro Weather Station | Change Station
CLOSE
Current Station
Personal Weather Station
Location: Boonsboro, MD
Elevation: 520 ft
Nearby Weather Stations
Active Advisory: Winter Storm Warning

Elev 520 ft 39.51 °N, 77.65 °W | Updated 11 minutes ago

Snow
Snow
27.0 °F
Feels Like 21 °F
N
5.1
Wind Variable Wind from NNE

Today
High -- | Low -- °F
--% Chance of Precip.
Yesterday
High -- | Low -- °F
Precip. -- in
6:38 AM 6:06 PM
Full, 100% visible
Pressure 30.07 in
Visibility 4.0 miles
Clouds Few 1300 ft
Scattered Clouds 3600 ft
Overcast 4700 ft
Windchill 21 °F
Dew Point 26 °F
Humidity 98%
Rainfall in
Snow Depth Not available.
UV 0 out of 12
Pollen .70 out of 12
Air Quality Not available.
Flu Activity Not available.
METAR KHGR 050953Z AUTO 34011KT 4SM -SN FEW013 SCT036 OVC047 01/M02 A3003 RMK AO2 SLP182 P0001 T00061022

More Conditions Fewer Conditions

Pressure 30.07 in
Visibility 4.0 miles
Clouds Few 1300 ft
Scattered Clouds 3600 ft
Overcast 4700 ft
Windchill 21 °F
Dew Point 26 °F
Humidity 98%
Rainfall in
Snow Depth Not available.
UV 0 out of 12
Pollen .70 out of 12
Air Quality Not available.
Flu Activity Not available.
METAR KHGR 050953Z AUTO 34011KT 4SM -SN FEW013 SCT036 OVC047 01/M02 A3003 RMK AO2 SLP182 P0001 T00061022

More Conditions Fewer Conditions

10-Day Weather Forecast

Almanac

Astronomy

Mar. 05, 2015 Rise Set
Actual Time
Civil Twilight
Nautical Twilight
Astronomical Twilight
Moon
Length of Visible Light
Length of Day
Tomorrow will be .
, % of the Moon is Illuminated

Today's Extremes

State Highs State Lows

Community

WunderPhotos

Upload Photos

1,802,714 photos uploaded!

WunderBlogs® & News

Nearby

Air Quality

  Air Quality AQ Index Pollutant
Not available.

Snow Depth

Station Depth Elevation

Earthquake Activity

City Distance Mag. Time & Date
Minimum magnitude displayed is 2.5.

Coastal Water Temperatures

Place Temperature

Nearby Weather Stations

Winter Storm Warning
Statement as of 3:53 AM EST on March 05, 2015

... Winter Storm Warning remains in effect until 7 PM EST this
evening...

* precipitation types... wintry mix becoming snow... heavy at
times.

* Accumulations... 5 to 8 inches of snow... with locally 10 inches
above 3500 ft.

* Timing... a mixture of precipitation early this morning will
become all snow by mid morning. Snow heaviest through midday
today.

* Temperatures... in the lower 30s... dropping into the lower 20s.

* Winds... northwest 10 to 15 mph with gusts to 25 mph.

* Impacts... roads will become snow covered with visibility
reduced to one-quarter mile at times. Traveling will be
dangerous.

Precautionary/preparedness actions...

A Winter Storm Warning for heavy snow means severe winter weather
conditions are expected or occurring. Significant amounts of snow
are forecast that will make travel dangerous. Only travel in an
emergency. If you must travel... keep an extra flashlight...
food... and water in your vehicle in case of an emergency.